sensor_id;sensor_type;location;lat;lon;timestamp;pressure;altitude;pressure_sealevel;temperature;humidity
20037;BME280;10179;42.640;23.312;2023-02-18T00:01:11;94406.28;;;9.89;35.88
20037;BME280;10179;42.640;23.312;2023-02-18T00:03:37;94409.91;;;9.82;36.01
20037;BME280;10179;42.640;23.312;2023-02-18T00:06:25;94398.03;;;9.72;36.18
20037;BME280;10179;42.640;23.312;2023-02-18T00:08:51;94357.41;;;9.28;36.39
20037;BME280;10179;42.640;23.312;2023-02-18T00:11:19;94403.41;;;9.51;36.75
20037;BME280;10179;42.640;23.312;2023-02-18T00:13:56;94398.19;;;9.51;36.73
20037;BME280;10179;42.640;23.312;2023-02-18T00:16:23;94405.03;;;9.45;36.78
20037;BME280;10179;42.640;23.312;2023-02-18T00:18:49;94348.94;;;9.20;37.02
20037;BME280;10179;42.640;23.312;2023-02-18T00:21:15;94331.56;;;8.99;37.13
20037;BME280;10179;42.640;23.312;2023-02-18T00:23:41;94390.72;;;9.41;36.96
20037;BME280;10179;42.640;23.312;2023-02-18T00:26:09;94359.84;;;9.37;36.97
20037;BME280;10179;42.640;23.312;2023-02-18T00:28:35;94372.78;;;9.45;37.08
20037;BME280;10179;42.640;23.312;2023-02-18T00:31:12;94344.09;;;9.37;37.08
20037;BME280;10179;42.640;23.312;2023-02-18T00:33:38;94364.91;;;9.38;37.31
20037;BME280;10179;42.640;23.312;2023-02-18T00:36:07;94350.59;;;9.41;36.98
20037;BME280;10179;42.640;23.312;2023-02-18T00:38:33;94357.44;;;9.42;37.21
20037;BME280;10179;42.640;23.312;2023-02-18T00:40:59;94349.56;;;9.42;37.04
20037;BME280;10179;42.640;23.312;2023-02-18T00:43:25;94332.38;;;9.19;37.32
20037;BME280;10179;42.640;23.312;2023-02-18T00:45:51;94344.94;;;9.37;37.35
20037;BME280;10179;42.640;23.312;2023-02-18T00:48:16;94367.09;;;9.35;37.39
20037;BME280;10179;42.640;23.312;2023-02-18T00:50:42;94319.88;;;9.08;37.22
20037;BME280;10179;42.640;23.312;2023-02-18T00:53:07;94353.38;;;9.32;37.51
20037;BME280;10179;42.640;23.312;2023-02-18T00:55:40;94286.75;;;8.80;37.33
20037;BME280;10179;42.640;23.312;2023-02-18T00:58:06;94348.94;;;9.20;37.43
20037;BME280;10179;42.640;23.312;2023-02-18T01:00:32;94355.59;;;9.29;37.48
20037;BME280;10179;42.640;23.312;2023-02-18T01:02:57;94361.03;;;9.27;37.81
20037;BME280;10179;42.640;23.312;2023-02-18T01:05:23;94284.75;;;8.82;37.42
20037;BME280;10179;42.640;23.312;2023-02-18T01:07:48;94361.03;;;9.21;37.53
20037;BME280;10179;42.640;23.312;2023-02-18T01:10:14;94359.41;;;9.20;37.68
20037;BME280;10179;42.640;23.312;2023-02-18T01:12:40;94304.31;;;8.87;37.65
20037;BME280;10179;42.640;23.312;2023-02-18T01:15:06;94279.88;;;8.73;37.67
20037;BME280;10179;42.640;23.312;2023-02-18T01:17:31;94300.28;;;8.91;37.77
20037;BME280;10179;42.640;23.312;2023-02-18T01:19:57;94359.00;;;9.16;37.76
20037;BME280;10179;42.640;23.312;2023-02-18T01:22:24;94332.78;;;9.03;37.83
20037;BME280;10179;42.640;23.312;2023-02-18T01:24:50;94360.63;;;9.17;37.67
20037;BME280;10179;42.640;23.312;2023-02-18T01:27:15;94306.94;;;8.87;37.77
20037;BME280;10179;42.640;23.312;2023-02-18T01:29:41;94341.66;;;9.15;37.70
20037;BME280;10179;42.640;23.312;2023-02-18T01:32:06;94342.03;;;9.12;37.83
20037;BME280;10179;42.640;23.312;2023-02-18T01:34:32;94326.28;;;8.92;37.91
20037;BME280;10179;42.640;23.312;2023-02-18T01:36:58;94209.16;;;8.05;38.08
20037;BME280;10179;42.640;23.312;2023-02-18T01:39:23;94340.81;;;9.01;37.95
20037;BME280;10179;42.640;23.312;2023-02-18T01:41:49;94345.25;;;9.01;38.08
20037;BME280;10179;42.640;23.312;2023-02-18T01:44:18;94292.56;;;8.69;37.98
20037;BME280;10179;42.640;23.312;2023-02-18T01:46:44;94325.50;;;8.92;38.01
20037;BME280;10179;42.640;23.312;2023-02-18T01:49:13;94323.69;;;8.99;38.08
20037;BME280;10179;42.640;23.312;2023-02-18T01:51:46;94365.84;;;9.11;38.02
20037;BME280;10179;42.640;23.312;2023-02-18T01:54:17;94364.78;;;8.92;37.96
20037;BME280;10179;42.640;23.312;2023-02-18T01:57:05;94296.34;;;8.47;38.25
20037;BME280;10179;42.640;23.312;2023-02-18T01:59:47;94332.22;;;8.66;38.42
20037;BME280;10179;42.640;23.312;2023-02-18T02:02:14;94362.09;;;8.72;38.32
20037;BME280;10179;42.640;23.312;2023-02-18T02:04:41;94376.41;;;8.76;38.19
20037;BME280;10179;42.640;23.312;2023-02-18T02:07:07;94263.16;;;8.19;38.46
20037;BME280;10179;42.640;23.312;2023-02-18T02:09:33;94379.59;;;8.71;38.49
20037;BME280;10179;42.640;23.312;2023-02-18T02:33:34;94347.78;;;8.74;38.68
20037;BME280;10179;42.640;23.312;2023-02-18T02:41:45;94345.53;;;8.65;38.79
20037;BME280;10179;42.640;23.312;2023-02-18T02:46:56;94268.97;;;8.08;39.22
20037;BME280;10179;42.640;23.312;2023-02-18T02:54:34;94278.22;;;8.17;39.11
20037;BME280;10179;42.640;23.312;2023-02-18T02:57:08;94318.66;;;8.49;39.18
20037;BME280;10179;42.640;23.312;2023-02-18T02:59:37;94312.44;;;8.50;39.45
20037;BME280;10179;42.640;23.312;2023-02-18T03:08:06;94298.94;;;8.12;39.16
20037;BME280;10179;42.640;23.312;2023-02-18T03:13:39;94350.75;;;8.58;39.29
20037;BME280;10179;42.640;23.312;2023-02-18T03:16:32;94366.66;;;8.56;39.00
20037;BME280;10179;42.640;23.312;2023-02-18T03:21:29;94305.47;;;8.29;38.92
20037;BME280;10179;42.640;23.312;2023-02-18T03:24:06;94317.66;;;8.44;39.15
20037;BME280;10179;42.640;23.312;2023-02-18T03:26:38;94337.03;;;8.56;39.06
20037;BME280;10179;42.640;23.312;2023-02-18T03:29:06;94361.03;;;8.66;38.90
20037;BME280;10179;42.640;23.312;2023-02-18T03:31:35;94256.69;;;8.08;39.06
20037;BME280;10179;42.640;23.312;2023-02-18T03:34:18;94356.41;;;8.62;39.09
20037;BME280;10179;42.640;23.312;2023-02-18T03:36:44;94269.88;;;7.94;39.08
20037;BME280;10179;42.640;23.312;2023-02-18T03:39:14;94347.16;;;8.31;39.04
20037;BME280;10179;42.640;23.312;2023-02-18T03:41:41;94350.56;;;8.31;39.19
20037;BME280;10179;42.640;23.312;2023-02-18T03:44:07;94381.56;;;8.63;39.09
20037;BME280;10179;42.640;23.312;2023-02-18T03:46:34;94352.88;;;8.41;38.81
20037;BME280;10179;42.640;23.312;2023-02-18T03:49:01;94326.22;;;8.31;38.75
20037;BME280;10179;42.640;23.312;2023-02-18T03:51:27;94397.34;;;8.76;38.92
20037;BME280;10179;42.640;23.312;2023-02-18T03:53:52;94338.50;;;8.30;38.55
20037;BME280;10179;42.640;23.312;2023-02-18T03:56:18;94409.44;;;8.77;38.72
20037;BME280;10179;42.640;23.312;2023-02-18T03:58:44;94399.94;;;8.69;38.86
20037;BME280;10179;42.640;23.312;2023-02-18T04:01:10;94253.28;;;7.73;38.55
20037;BME280;10179;42.640;23.312;2023-02-18T04:03:35;94384.22;;;8.69;38.75
20037;BME280;10179;42.640;23.312;2023-02-18T04:06:01;94351.50;;;8.52;39.00
20037;BME280;10179;42.640;23.312;2023-02-18T04:08:26;94370.06;;;8.57;38.98
20037;BME280;10179;42.640;23.312;2023-02-18T04:10:52;94364.38;;;8.47;38.89
20037;BME280;10179;42.640;23.312;2023-02-18T04:13:17;94369.63;;;8.47;39.08
20037;BME280;10179;42.640;23.312;2023-02-18T04:15:43;94308.16;;;8.01;39.46
20037;BME280;10179;42.640;23.312;2023-02-18T04:18:09;94370.38;;;8.41;39.55
20037;BME280;10179;42.640;23.312;2023-02-18T04:20:35;94155.53;;;7.05;39.32
20037;BME280;10179;42.640;23.312;2023-02-18T04:23:01;94319.66;;;8.13;39.54
20037;BME280;10179;42.640;23.312;2023-02-18T04:25:27;94331.56;;;8.16;39.31
20037;BME280;10179;42.640;23.312;2023-02-18T04:27:52;94356.66;;;8.39;39.67
20037;BME280;10179;42.640;23.312;2023-02-18T04:30:18;94311.03;;;8.13;39.35
20037;BME280;10179;42.640;23.312;2023-02-18T04:32:43;94328.41;;;8.27;39.38
20037;BME280;10179;42.640;23.312;2023-02-18T04:35:08;94352.50;;;8.44;39.48
20037;BME280;10179;42.640;23.312;2023-02-18T04:37:34;94351.91;;;8.49;39.39
20037;BME280;10179;42.640;23.312;2023-02-18T04:39:59;94347.88;;;8.53;39.31
20037;BME280;10179;42.640;23.312;2023-02-18T04:42:25;94349.13;;;8.57;39.16
20037;BME280;10179;42.640;23.312;2023-02-18T04:44:50;94349.94;;;8.57;39.09
20037;BME280;10179;42.640;23.312;2023-02-18T04:47:15;94318.16;;;8.26;38.96
20037;BME280;10179;42.640;23.312;2023-02-18T04:49:41;94354.75;;;8.54;39.17
20037;BME280;10179;42.640;23.312;2023-02-18T04:52:06;94344.59;;;8.38;38.98
20037;BME280;10179;42.640;23.312;2023-02-18T04:54:32;94186.84;;;7.33;39.28
20037;BME280;10179;42.640;23.312;2023-02-18T04:56:57;94350.91;;;8.50;39.42
20037;BME280;10179;42.640;23.312;2023-02-18T04:59:23;94347.47;;;8.43;39.36
20037;BME280;10179;42.640;23.312;2023-02-18T05:01:48;94300.72;;;8.05;39.32
20037;BME280;10179;42.640;23.312;2023-02-18T05:04:14;94326.72;;;8.13;39.73
20037;BME280;10179;42.640;23.312;2023-02-18T05:06:41;94305.28;;;7.96;39.63
20037;BME280;10179;42.640;23.312;2023-02-18T05:09:08;94386.91;;;8.41;39.61
20037;BME280;10179;42.640;23.312;2023-02-18T05:11:33;94391.31;;;8.41;39.44
20037;BME280;10179;42.640;23.312;2023-02-18T05:13:59;94410.66;;;8.40;39.48
20037;BME280;10179;42.640;23.312;2023-02-18T05:16:24;94330.84;;;7.94;39.55
20037;BME280;10179;42.640;23.312;2023-02-18T05:18:49;94389.22;;;8.29;39.73
20037;BME280;10179;42.640;23.312;2023-02-18T05:21:15;94364.94;;;8.14;39.86
20037;BME280;10179;42.640;23.312;2023-02-18T05:23:40;94349.25;;;8.14;39.86
20037;BME280;10179;42.640;23.312;2023-02-18T05:26:06;94365.81;;;8.21;40.23
20037;BME280;10179;42.640;23.312;2023-02-18T05:28:31;94375.03;;;8.17;40.01
20037;BME280;10179;42.640;23.312;2023-02-18T05:30:57;94377.06;;;8.15;40.10
20037;BME280;10179;42.640;23.312;2023-02-18T05:33:22;94348.28;;;8.15;40.18
20037;BME280;10179;42.640;23.312;2023-02-18T05:35:48;94336.59;;;8.11;40.41
20037;BME280;10179;42.640;23.312;2023-02-18T05:38:13;94346.88;;;8.19;40.51
20037;BME280;10179;42.640;23.312;2023-02-18T05:40:39;94262.53;;;7.76;40.56
20037;BME280;10179;42.640;23.312;2023-02-18T05:43:04;94352.81;;;8.34;40.36
20037;BME280;10179;42.640;23.312;2023-02-18T05:45:30;94359.53;;;8.44;40.35
20037;BME280;10179;42.640;23.312;2023-02-18T05:47:55;94341.16;;;8.37;40.23
20037;BME280;10179;42.640;23.312;2023-02-18T05:50:21;94340.97;;;8.39;40.22
20037;BME280;10179;42.640;23.312;2023-02-18T05:52:47;94347.66;;;8.48;39.92
20037;BME280;10179;42.640;23.312;2023-02-18T05:55:12;94371.50;;;8.66;39.72
20037;BME280;10179;42.640;23.312;2023-02-18T05:57:37;94378.59;;;8.72;39.96
20037;BME280;10179;42.640;23.312;2023-02-18T06:00:04;94343.88;;;8.50;40.05
20037;BME280;10179;42.640;23.312;2023-02-18T06:02:30;94348.72;;;8.53;40.01
20037;BME280;10179;42.640;23.312;2023-02-18T06:04:55;94393.28;;;8.73;39.87
20037;BME280;10179;42.640;23.312;2023-02-18T06:07:21;94366.88;;;8.62;39.89
20037;BME280;10179;42.640;23.312;2023-02-18T06:09:46;94360.03;;;8.60;39.87
20037;BME280;10179;42.640;23.312;2023-02-18T06:12:12;94400.84;;;8.90;39.69
20037;BME280;10179;42.640;23.312;2023-02-18T06:14:37;94393.19;;;8.95;39.52
20037;BME280;10179;42.640;23.312;2023-02-18T06:17:07;94386.16;;;9.02;39.55
20037;BME280;10179;42.640;23.312;2023-02-18T06:19:32;94386.38;;;9.07;39.27
20037;BME280;10179;42.640;23.312;2023-02-18T06:21:58;94384.59;;;9.14;39.23
20037;BME280;10179;42.640;23.312;2023-02-18T06:24:23;94265.69;;;8.41;39.12
20037;BME280;10179;42.640;23.312;2023-02-18T06:26:49;94382.41;;;9.24;38.92
20037;BME280;10179;42.640;23.312;2023-02-18T06:29:14;94352.13;;;9.15;38.75
20037;BME280;10179;42.640;23.312;2023-02-18T06:31:40;94381.81;;;9.36;38.98
20037;BME280;10179;42.640;23.312;2023-02-18T06:34:05;94376.38;;;9.44;38.85
20037;BME280;10179;42.640;23.312;2023-02-18T06:36:30;94370.56;;;9.55;38.74
20037;BME280;10179;42.640;23.312;2023-02-18T06:38:56;94361.88;;;9.61;38.40
20037;BME280;10179;42.640;23.312;2023-02-18T06:41:23;94312.47;;;9.38;38.52
20037;BME280;10179;42.640;23.312;2023-02-18T06:43:50;94358.69;;;9.72;38.52
20037;BME280;10179;42.640;23.312;2023-02-18T06:46:15;94366.34;;;9.80;38.65
20037;BME280;10179;42.640;23.312;2023-02-18T06:48:41;94397.03;;;9.87;38.42
20037;BME280;10179;42.640;23.312;2023-02-18T06:51:06;94297.34;;;9.53;38.36
20037;BME280;10179;42.640;23.312;2023-02-18T06:53:32;94084.47;;;8.32;38.31
20037;BME280;10179;42.640;23.312;2023-02-18T06:55:58;94360.66;;;10.23;38.13
20037;BME280;10179;42.640;23.312;2023-02-18T06:58:23;94371.97;;;10.31;37.71
20037;BME280;10179;42.640;23.312;2023-02-18T07:00:49;94378.41;;;10.35;38.20
20037;BME280;10179;42.640;23.312;2023-02-18T07:03:15;94372.34;;;10.41;37.99
20037;BME280;10179;42.640;23.312;2023-02-18T07:05:41;94367.72;;;10.43;38.01
20037;BME280;10179;42.640;23.312;2023-02-18T07:08:07;94379.44;;;10.47;38.12
20037;BME280;10179;42.640;23.312;2023-02-18T07:10:33;94346.91;;;10.35;38.24
20037;BME280;10179;42.640;23.312;2023-02-18T07:12:59;94377.19;;;10.57;38.19
20037;BME280;10179;42.640;23.312;2023-02-18T07:15:25;94376.34;;;10.63;38.42
20037;BME280;10179;42.640;23.312;2023-02-18T07:17:52;94371.88;;;10.70;38.19
20037;BME280;10179;42.640;23.312;2023-02-18T07:20:19;94342.16;;;10.70;37.99
20037;BME280;10179;42.640;23.312;2023-02-18T07:22:45;94337.53;;;10.65;37.94
20037;BME280;10179;42.640;23.312;2023-02-18T07:25:10;94318.31;;;10.71;38.01
20037;BME280;10179;42.640;23.312;2023-02-18T07:27:36;94273.34;;;10.55;37.72
20037;BME280;10179;42.640;23.312;2023-02-18T07:30:01;94348.63;;;11.12;37.05
20037;BME280;10179;42.640;23.312;2023-02-18T07:32:27;94352.03;;;11.19;36.37
20037;BME280;10179;42.640;23.312;2023-02-18T07:34:52;94344.91;;;11.27;35.94
20037;BME280;10179;42.640;23.312;2023-02-18T07:37:19;94353.63;;;11.27;35.51
20037;BME280;10179;42.640;23.312;2023-02-18T07:39:44;94357.50;;;11.25;35.54
20037;BME280;10179;42.640;23.312;2023-02-18T07:42:10;94376.25;;;11.35;35.46
20037;BME280;10179;42.640;23.312;2023-02-18T07:44:37;94403.13;;;11.37;35.46
20037;BME280;10179;42.640;23.312;2023-02-18T07:47:04;94369.19;;;11.29;35.47
20037;BME280;10179;42.640;23.312;2023-02-18T07:49:29;94384.56;;;11.32;35.55
20037;BME280;10179;42.640;23.312;2023-02-18T07:51:55;94370.00;;;11.29;35.47
20037;BME280;10179;42.640;23.312;2023-02-18T07:54:20;94403.41;;;11.60;35.34
20037;BME280;10179;42.640;23.312;2023-02-18T07:56:46;94401.34;;;11.69;35.15
20037;BME280;10179;42.640;23.312;2023-02-18T07:59:12;94410.19;;;11.75;34.93
20037;BME280;10179;42.640;23.312;2023-02-18T08:01:38;94391.94;;;11.80;34.81
20037;BME280;10179;42.640;23.312;2023-02-18T08:04:04;94189.63;;;10.65;34.79
20037;BME280;10179;42.640;23.312;2023-02-18T08:08:59;94334.78;;;11.93;34.73
20037;BME280;10179;42.640;23.312;2023-02-18T08:11:25;94368.56;;;12.22;34.67
20037;BME280;10179;42.640;23.312;2023-02-18T08:13:50;94382.91;;;12.26;34.60
20037;BME280;10179;42.640;23.312;2023-02-18T08:16:18;94352.88;;;12.08;34.36
20037;BME280;10179;42.640;23.312;2023-02-18T08:18:44;94355.53;;;12.27;34.39
20037;BME280;10179;42.640;23.312;2023-02-18T08:21:12;94388.34;;;12.49;34.34
20037;BME280;10179;42.640;23.312;2023-02-18T08:23:38;94385.56;;;12.62;33.96
20037;BME280;10179;42.640;23.312;2023-02-18T08:26:03;94328.94;;;12.53;33.92
20037;BME280;10179;42.640;23.312;2023-02-18T08:28:29;94322.78;;;12.78;33.46
20037;BME280;10179;42.640;23.312;2023-02-18T08:30:55;94352.00;;;13.25;32.95
20037;BME280;10179;42.640;23.312;2023-02-18T08:33:22;94329.13;;;13.19;32.82
20037;BME280;10179;42.640;23.312;2023-02-18T08:35:49;94291.13;;;13.08;32.52
20037;BME280;10179;42.640;23.312;2023-02-18T08:38:14;94363.66;;;13.47;31.82
20037;BME280;10179;42.640;23.312;2023-02-18T08:40:40;94260.63;;;13.00;31.58
20037;BME280;10179;42.640;23.312;2023-02-18T08:43:06;94347.03;;;13.47;31.53
20037;BME280;10179;42.640;23.312;2023-02-18T08:45:32;94311.91;;;13.16;31.46
20037;BME280;10179;42.640;23.312;2023-02-18T08:47:58;94356.88;;;13.40;31.41
20037;BME280;10179;42.640;23.312;2023-02-18T08:50:23;94351.94;;;13.31;31.43
20037;BME280;10179;42.640;23.312;2023-02-18T08:52:53;94309.41;;;12.91;31.37
20037;BME280;10179;42.640;23.312;2023-02-18T08:55:19;94354.22;;;13.09;31.08
20037;BME280;10179;42.640;23.312;2023-02-18T08:57:49;94349.09;;;12.96;31.22
20037;BME280;10179;42.640;23.312;2023-02-18T09:00:15;94370.16;;;13.14;30.70
20037;BME280;10179;42.640;23.312;2023-02-18T09:02:41;94378.09;;;13.14;30.58
20037;BME280;10179;42.640;23.312;2023-02-18T09:05:07;94367.25;;;13.04;30.86
20037;BME280;10179;42.640;23.312;2023-02-18T09:07:34;94389.78;;;13.19;30.87
20037;BME280;10179;42.640;23.312;2023-02-18T09:10:00;94341.03;;;13.09;30.78
20037;BME280;10179;42.640;23.312;2023-02-18T09:12:26;94362.84;;;13.35;30.89
20037;BME280;10179;42.640;23.312;2023-02-18T09:14:52;94328.88;;;13.27;30.69
20037;BME280;10179;42.640;23.312;2023-02-18T09:17:17;94386.34;;;13.67;30.76
20037;BME280;10179;42.640;23.312;2023-02-18T09:19:43;94371.94;;;13.81;30.75
20037;BME280;10179;42.640;23.312;2023-02-18T09:22:08;94364.00;;;13.93;30.46
20037;BME280;10179;42.640;23.312;2023-02-18T09:24:38;94372.66;;;14.12;30.41
20037;BME280;10179;42.640;23.312;2023-02-18T09:27:03;94378.66;;;14.19;29.91
20037;BME280;10179;42.640;23.312;2023-02-18T09:29:29;94331.41;;;14.11;29.74
20037;BME280;10179;42.640;23.312;2023-02-18T09:31:55;94357.75;;;14.52;29.49
20037;BME280;10179;42.640;23.312;2023-02-18T09:34:23;94302.22;;;14.41;29.53
20037;BME280;10179;42.640;23.312;2023-02-18T09:36:49;94347.56;;;14.96;29.23
20037;BME280;10179;42.640;23.312;2023-02-18T09:39:14;94318.09;;;15.04;28.87
20037;BME280;10179;42.640;23.312;2023-02-18T09:41:45;94328.13;;;15.31;28.42
20037;BME280;10179;42.640;23.312;2023-02-18T09:44:24;94275.69;;;14.99;28.26
20037;BME280;10179;42.640;23.312;2023-02-18T09:47:10;94333.38;;;15.60;28.06
20037;BME280;10179;42.640;23.312;2023-02-18T09:49:39;94341.53;;;15.70;27.96
20037;BME280;10179;42.640;23.312;2023-02-18T09:52:13;94262.13;;;15.41;27.83
20037;BME280;10179;42.640;23.312;2023-02-18T09:54:40;94314.59;;;15.73;27.66
20037;BME280;10179;42.640;23.312;2023-02-18T09:57:20;94343.50;;;16.08;27.64
20037;BME280;10179;42.640;23.312;2023-02-18T09:59:50;94341.31;;;16.22;27.18
20037;BME280;10179;42.640;23.312;2023-02-18T10:02:18;94340.09;;;16.30;27.03
20037;BME280;10179;42.640;23.312;2023-02-18T10:04:45;94323.16;;;16.14;26.92
20037;BME280;10179;42.640;23.312;2023-02-18T10:07:28;94324.03;;;16.36;26.96
20037;BME280;10179;42.640;23.312;2023-02-18T10:09:55;94330.41;;;16.57;26.64
20037;BME280;10179;42.640;23.312;2023-02-18T10:12:24;94336.53;;;16.75;27.05
20037;BME280;10179;42.640;23.312;2023-02-18T10:14:52;94340.09;;;16.85;26.10
20037;BME280;10179;42.640;23.312;2023-02-18T10:17:20;94301.59;;;16.66;26.38
20037;BME280;10179;42.640;23.312;2023-02-18T10:19:47;94317.25;;;16.84;26.56
20037;BME280;10179;42.640;23.312;2023-02-18T10:22:13;94327.75;;;16.96;26.27
20037;BME280;10179;42.640;23.312;2023-02-18T10:24:52;94313.13;;;16.93;26.60
20037;BME280;10179;42.640;23.312;2023-02-18T10:29:51;94263.03;;;16.75;26.26
20037;BME280;10179;42.640;23.312;2023-02-18T10:32:26;94299.03;;;17.15;26.51
20037;BME280;10179;42.640;23.312;2023-02-18T10:35:04;94323.19;;;17.40;26.54
20037;BME280;10179;42.640;23.312;2023-02-18T10:37:41;94323.75;;;17.42;26.20
20037;BME280;10179;42.640;23.312;2023-02-18T10:40:20;94320.59;;;17.46;26.04
20037;BME280;10179;42.640;23.312;2023-02-18T10:45:50;94294.13;;;17.56;25.86
20037;BME280;10179;42.640;23.312;2023-02-18T10:48:32;94288.56;;;17.57;26.08
20037;BME280;10179;42.640;23.312;2023-02-18T10:51:03;94274.97;;;17.54;25.88
20037;BME280;10179;42.640;23.312;2023-02-18T10:53:35;94288.66;;;17.68;25.78
20037;BME280;10179;42.640;23.312;2023-02-18T10:56:02;94274.06;;;17.70;25.32
20037;BME280;10179;42.640;23.312;2023-02-18T10:58:32;94269.28;;;17.72;25.32
20037;BME280;10179;42.640;23.312;2023-02-18T11:01:00;94274.19;;;17.80;25.47
20037;BME280;10179;42.640;23.312;2023-02-18T11:03:46;94267.63;;;17.93;25.49
20037;BME280;10179;42.640;23.312;2023-02-18T11:06:37;94265.53;;;18.00;25.29
20037;BME280;10179;42.640;23.312;2023-02-18T11:09:04;94246.53;;;17.76;25.43
20037;BME280;10179;42.640;23.312;2023-02-18T11:11:31;94262.00;;;17.89;25.36
20037;BME280;10179;42.640;23.312;2023-02-18T11:14:01;94257.81;;;17.94;25.62
20037;BME280;10179;42.640;23.312;2023-02-18T11:16:41;94257.84;;;18.04;25.52
20037;BME280;10179;42.640;23.312;2023-02-18T11:19:33;94251.84;;;18.19;25.35
20037;BME280;10179;42.640;23.312;2023-02-18T11:22:29;94203.59;;;18.00;25.53
20037;BME280;10179;42.640;23.312;2023-02-18T11:24:59;93758.97;;;15.16;25.17
20037;BME280;10179;42.640;23.312;2023-02-18T11:27:28;94246.34;;;18.30;25.06
20037;BME280;10179;42.640;23.312;2023-02-18T11:30:03;94219.16;;;18.23;25.08
20037;BME280;10179;42.640;23.312;2023-02-18T11:32:33;94189.59;;;18.15;25.02
20037;BME280;10179;42.640;23.312;2023-02-18T11:35:01;94200.63;;;18.39;25.36
20037;BME280;10179;42.640;23.312;2023-02-18T11:37:27;94204.91;;;18.45;24.85
20037;BME280;10179;42.640;23.312;2023-02-18T11:39:54;94213.44;;;18.52;25.01
20037;BME280;10179;42.640;23.312;2023-02-18T11:42:22;94180.97;;;18.45;24.96
20037;BME280;10179;42.640;23.312;2023-02-18T11:47:19;94195.41;;;18.64;24.71
20037;BME280;10179;42.640;23.312;2023-02-18T11:49:59;94185.88;;;18.73;24.34
20037;BME280;10179;42.640;23.312;2023-02-18T11:52:33;94162.94;;;18.62;24.44
20037;BME280;10179;42.640;23.312;2023-02-18T11:55:03;94179.50;;;18.74;24.15
20037;BME280;10179;42.640;23.312;2023-02-18T11:57:30;94144.84;;;18.54;24.42
20037;BME280;10179;42.640;23.312;2023-02-18T11:59:56;94165.66;;;18.77;24.42
20037;BME280;10179;42.640;23.312;2023-02-18T12:05:04;94158.78;;;18.97;24.65
20037;BME280;10179;42.640;23.312;2023-02-18T12:07:45;94103.09;;;18.65;24.60
20037;BME280;10179;42.640;23.312;2023-02-18T12:10:25;94155.09;;;19.03;23.89
20037;BME280;10179;42.640;23.312;2023-02-18T12:13:03;94138.56;;;19.11;24.04
20037;BME280;10179;42.640;23.312;2023-02-18T12:21:05;94144.97;;;19.25;24.32
20037;BME280;10179;42.640;23.312;2023-02-18T12:24:04;94091.69;;;18.95;24.00
20037;BME280;10179;42.640;23.312;2023-02-18T12:29:28;94131.09;;;19.44;24.92
20037;BME280;10179;42.640;23.312;2023-02-18T12:40:02;94091.66;;;19.71;24.89
20037;BME280;10179;42.640;23.312;2023-02-18T12:54:48;94087.81;;;20.03;24.94
20037;BME280;10179;42.640;23.312;2023-02-18T12:57:39;94094.78;;;19.99;24.74
20037;BME280;10179;42.640;23.312;2023-02-18T13:05:58;94101.97;;;19.93;25.00
20037;BME280;10179;42.640;23.312;2023-02-18T13:16:45;94093.19;;;19.98;24.70
20037;BME280;10179;42.640;23.312;2023-02-18T13:19:32;94105.66;;;20.08;24.77
20037;BME280;10179;42.640;23.312;2023-02-18T13:22:02;94100.13;;;19.99;23.92
20037;BME280;10179;42.640;23.312;2023-02-18T13:24:37;94081.75;;;19.87;23.79
20037;BME280;10179;42.640;23.312;2023-02-18T13:27:38;94089.41;;;20.04;23.24
20037;BME280;10179;42.640;23.312;2023-02-18T13:30:12;94095.25;;;20.16;22.99
20037;BME280;10179;42.640;23.312;2023-02-18T13:32:53;94090.03;;;19.91;23.14
20037;BME280;10179;42.640;23.312;2023-02-18T13:38:16;94094.53;;;19.95;23.46
20037;BME280;10179;42.640;23.312;2023-02-18T13:40:48;94095.84;;;19.93;24.02
20037;BME280;10179;42.640;23.312;2023-02-18T13:45:42;94101.97;;;19.98;23.87
20037;BME280;10179;42.640;23.312;2023-02-18T13:48:27;94099.81;;;20.06;23.78
20037;BME280;10179;42.640;23.312;2023-02-18T13:50:59;94087.34;;;19.91;23.97
20037;BME280;10179;42.640;23.312;2023-02-18T13:53:28;94077.22;;;19.88;23.72
20037;BME280;10179;42.640;23.312;2023-02-18T13:56:26;94087.31;;;20.01;23.72
20037;BME280;10179;42.640;23.312;2023-02-18T13:59:14;94086.50;;;20.06;23.55
20037;BME280;10179;42.640;23.312;2023-02-18T14:01:47;94064.97;;;19.87;23.61
20037;BME280;10179;42.640;23.312;2023-02-18T14:04:52;94077.69;;;20.05;23.43
20037;BME280;10179;42.640;23.312;2023-02-18T14:25:53;94099.69;;;19.20;25.45
20037;BME280;10179;42.640;23.312;2023-02-18T14:33:33;94083.13;;;18.62;26.20
20037;BME280;10179;42.640;23.312;2023-02-18T14:49:45;94089.41;;;18.20;27.22
20037;BME280;10179;42.640;23.312;2023-02-18T14:52:27;94099.50;;;18.18;27.28
20037;BME280;10179;42.640;23.312;2023-02-18T14:54:55;94101.06;;;18.09;27.41
20037;BME280;10179;42.640;23.312;2023-02-18T14:57:38;94085.06;;;18.04;27.31
20037;BME280;10179;42.640;23.312;2023-02-18T15:00:05;94087.13;;;17.86;27.30
20037;BME280;10179;42.640;23.312;2023-02-18T15:02:35;94090.91;;;17.96;27.69
20037;BME280;10179;42.640;23.312;2023-02-18T15:05:23;94090.94;;;18.01;27.50
20037;BME280;10179;42.640;23.312;2023-02-18T15:11:02;93986.88;;;17.19;27.90
20037;BME280;10179;42.640;23.312;2023-02-18T15:13:32;94090.19;;;17.68;28.22
20037;BME280;10179;42.640;23.312;2023-02-18T15:16:01;94073.91;;;17.54;27.98
20037;BME280;10179;42.640;23.312;2023-02-18T15:18:32;94085.63;;;17.58;28.41
20037;BME280;10179;42.640;23.312;2023-02-18T15:21:00;94090.63;;;17.50;28.35
20037;BME280;10179;42.640;23.312;2023-02-18T15:23:26;94066.59;;;17.29;28.70
20037;BME280;10179;42.640;23.312;2023-02-18T15:25:53;94059.06;;;17.16;28.58
20037;BME280;10179;42.640;23.312;2023-02-18T15:28:29;94077.72;;;17.26;28.66
20037;BME280;10179;42.640;23.312;2023-02-18T15:30:58;94074.19;;;17.15;29.31
20037;BME280;10179;42.640;23.312;2023-02-18T15:33:25;94033.34;;;16.84;29.35